createdAt,value
2017-04-14T00:00:28.729Z,10.85
2017-04-14T00:01:27.984Z,9.62
2017-04-14T00:02:27.229Z,11.00
2017-04-14T00:03:26.473Z,15.10
2017-04-14T00:04:25.691Z,9.50
2017-04-14T00:05:24.893Z,10.37
2017-04-14T00:06:24.832Z,11.70
2017-04-14T00:07:24.056Z,13.30
2017-04-14T00:08:23.329Z,8.83
2017-04-14T00:09:22.536Z,8.87
2017-04-14T00:10:21.854Z,10.45
2017-04-14T00:11:21.798Z,14.00
2017-04-14T00:12:21.005Z,14.25
2017-04-14T00:13:20.190Z,10.02
2017-04-14T00:14:19.409Z,12.23
2017-04-14T00:15:18.595Z,12.05
2017-04-14T00:16:17.810Z,8.50
2017-04-14T00:17:17.836Z,15.12
2017-04-14T00:18:17.045Z,18.30
2017-04-14T00:19:16.218Z,15.70
2017-04-14T00:20:15.749Z,14.03
2017-04-14T00:21:14.922Z,10.73
2017-04-14T00:22:14.164Z,11.97
2017-04-14T00:23:14.108Z,10.88
2017-04-14T00:24:13.321Z,10.67
2017-04-14T00:25:12.516Z,8.55
2017-04-14T00:26:11.733Z,11.33
2017-04-14T00:27:10.924Z,9.68
2017-04-14T00:28:10.908Z,11.27
2017-04-14T00:29:10.112Z,8.08
2017-04-14T00:30:10.032Z,8.22
2017-04-14T00:31:09.245Z,11.18
2017-04-14T00:32:08.469Z,8.30
2017-04-14T00:33:07.660Z,9.13
2017-04-14T00:34:06.896Z,8.95
2017-04-14T00:35:06.076Z,12.15
2017-04-14T00:36:05.256Z,14.75
2017-04-14T00:37:04.521Z,12.85
2017-04-14T00:38:04.003Z,10.35
2017-04-14T00:39:03.299Z,14.33
2017-04-14T00:40:02.497Z,15.93
2017-04-14T00:41:02.052Z,13.57
2017-04-14T00:42:01.224Z,9.50
2017-04-14T00:43:00.396Z,9.50
2017-04-14T00:43:59.638Z,10.62
2017-04-14T00:44:58.820Z,10.95
2017-04-14T00:45:58.002Z,15.95
2017-04-14T00:46:57.185Z,10.78
2017-04-14T00:47:57.132Z,10.67
2017-04-14T00:48:56.341Z,11.62
2017-04-14T00:49:55.578Z,9.25
2017-04-14T00:50:54.783Z,11.83
2017-04-14T00:51:53.993Z,12.28
2017-04-14T00:52:53.934Z,12.55
2017-04-14T00:53:53.121Z,15.58
2017-04-14T00:54:52.313Z,11.52
2017-04-14T00:55:51.836Z,13.78
2017-04-14T00:56:51.045Z,14.13
2017-04-14T00:57:50.232Z,13.85
2017-04-14T00:58:49.407Z,9.00
2017-04-14T00:59:48.681Z,13.03
2017-04-14T01:00:48.614Z,10.87
2017-04-14T01:01:47.912Z,11.62
2017-04-14T01:02:47.873Z,10.65
2017-04-14T01:03:47.066Z,9.40
2017-04-14T01:04:46.237Z,9.05
2017-04-14T01:05:45.421Z,8.92
2017-04-14T01:06:44.640Z,6.80
2017-04-14T01:07:43.859Z,8.63
2017-04-14T01:08:43.048Z,10.63
2017-04-14T01:09:42.270Z,12.27
2017-04-14T01:10:41.452Z,7.37
2017-04-14T01:11:40.711Z,8.12
2017-04-14T01:12:39.908Z,7.25
2017-04-14T01:13:39.888Z,8.90
2017-04-14T01:14:39.104Z,7.23
2017-04-14T01:15:39.053Z,7.87
2017-04-14T01:16:38.304Z,7.53
2017-04-14T01:17:37.516Z,9.03
2017-04-14T01:18:36.741Z,11.15
2017-04-14T01:19:35.973Z,9.32
2017-04-14T01:20:35.188Z,7.23
2017-04-14T01:21:34.390Z,8.27
2017-04-14T01:22:33.610Z,12.80
2017-04-14T01:23:32.940Z,9.30
2017-04-14T01:24:32.179Z,7.30
2017-04-14T01:25:31.423Z,18.08
2017-04-14T01:26:30.624Z,10.30
2017-04-14T01:27:29.849Z,7.38
2017-04-14T01:28:29.853Z,7.87
2017-04-14T01:29:29.056Z,10.15
2017-04-14T01:30:28.268Z,8.27
2017-04-14T01:31:27.489Z,8.80
2017-04-14T01:32:27.448Z,8.75
2017-04-14T01:33:26.658Z,8.52
2017-04-14T01:34:25.872Z,6.47
2017-04-14T01:35:25.092Z,8.22
2017-04-14T01:36:24.301Z,11.37
2017-04-14T01:37:23.846Z,6.90
2017-04-14T01:38:23.054Z,8.75
2017-04-14T01:39:22.264Z,7.30
2017-04-14T01:40:21.521Z,14.30
2017-04-14T01:41:21.457Z,9.00
2017-04-14T01:42:20.652Z,8.92
2017-04-14T01:43:19.887Z,7.27
2017-04-14T01:44:19.086Z,8.20
2017-04-14T01:45:18.301Z,6.92
2017-04-14T01:46:17.500Z,9.25
2017-04-14T01:47:16.721Z,7.25
2017-04-14T01:48:15.917Z,8.68
2017-04-14T01:49:15.140Z,6.98
2017-04-14T01:50:14.337Z,9.52
2017-04-14T01:51:13.558Z,7.65
2017-04-14T01:52:12.769Z,13.47
2017-04-14T01:53:11.986Z,9.25
2017-04-14T01:54:11.925Z,8.48
2017-04-14T01:55:11.163Z,12.98
2017-04-14T01:56:10.389Z,9.82
2017-04-14T01:57:09.585Z,8.32
2017-04-14T01:58:08.795Z,9.82
2017-04-14T01:59:07.997Z,10.32
2017-04-14T02:00:07.229Z,10.38
2017-04-14T02:01:06.456Z,14.55
2017-04-14T02:02:05.652Z,7.87
2017-04-14T02:03:04.880Z,8.82
2017-04-14T02:04:04.837Z,10.02
2017-04-14T02:05:04.048Z,16.52
2017-04-14T02:06:03.285Z,8.60
2017-04-14T02:07:02.647Z,9.77
2017-04-14T02:08:01.845Z,7.80
2017-04-14T02:09:01.837Z,8.50
2017-04-14T02:10:01.092Z,5.70
2017-04-14T02:11:00.301Z,7.02
2017-04-14T02:11:59.521Z,9.68
2017-04-14T02:12:59.081Z,7.20
2017-04-14T02:13:58.280Z,7.62
2017-04-14T02:14:57.484Z,11.10
2017-04-14T02:15:56.682Z,6.80
2017-04-14T02:16:55.872Z,7.98
2017-04-14T02:17:55.816Z,8.15
2017-04-14T02:18:55.046Z,8.32
2017-04-14T02:19:54.266Z,7.50
2017-04-14T02:20:53.484Z,10.68
2017-04-14T02:21:52.682Z,7.68
2017-04-14T02:22:51.904Z,10.45
2017-04-14T02:23:51.101Z,8.65
2017-04-14T02:24:51.072Z,11.40
2017-04-14T02:25:50.381Z,9.43
2017-04-14T02:26:49.577Z,8.00
2017-04-14T02:27:48.778Z,8.55
2017-04-14T02:28:48.717Z,7.70
2017-04-14T02:29:47.947Z,8.02
2017-04-14T02:30:47.177Z,7.87
2017-04-14T02:31:46.368Z,10.75
2017-04-14T02:32:45.566Z,8.83
2017-04-14T02:33:44.770Z,9.97
2017-04-14T02:34:43.968Z,14.82
2017-04-14T02:35:43.912Z,12.38
2017-04-14T02:36:43.353Z,9.07
2017-04-14T02:37:42.561Z,14.40
2017-04-14T02:38:41.781Z,9.12
2017-04-14T02:39:40.975Z,9.75
2017-04-14T02:40:40.916Z,11.18
2017-04-14T02:41:40.128Z,11.55
2017-04-14T02:42:39.361Z,10.72
2017-04-14T02:43:38.568Z,12.12
2017-04-14T02:44:37.772Z,8.02
2017-04-14T02:45:36.985Z,8.45
2017-04-14T02:46:36.189Z,8.42
2017-04-14T02:47:35.440Z,11.87
2017-04-14T02:48:34.656Z,7.77
2017-04-14T02:49:33.909Z,7.02
2017-04-14T02:50:33.120Z,9.77
2017-04-14T02:51:32.315Z,8.72
2017-04-14T02:52:31.526Z,9.68
2017-04-14T02:53:31.225Z,5.90
2017-04-14T02:54:30.685Z,10.45
2017-04-14T02:55:29.925Z,12.32
2017-04-14T02:56:29.137Z,9.95
2017-04-14T02:57:29.092Z,13.43
2017-04-14T02:58:28.297Z,13.22
2017-04-14T02:59:27.528Z,10.77
2017-04-14T03:00:26.844Z,8.65
2017-04-14T03:01:26.109Z,9.65
2017-04-14T03:02:25.309Z,17.47
2017-04-14T03:03:24.524Z,14.30
2017-04-14T03:04:23.731Z,13.87
2017-04-14T03:05:23.720Z,12.18
2017-04-14T03:06:22.945Z,15.33
2017-04-14T03:07:22.144Z,14.93
2017-04-14T03:08:22.105Z,8.53
2017-04-14T03:09:21.329Z,11.35
2017-04-14T03:10:20.538Z,8.83
2017-04-14T03:11:19.794Z,6.88
2017-04-14T03:12:19.075Z,8.10
2017-04-14T03:13:18.282Z,8.35
2017-04-14T03:14:17.501Z,11.90
2017-04-14T03:15:16.724Z,10.28
2017-04-14T03:16:15.920Z,7.72
2017-04-14T03:17:15.160Z,13.07
2017-04-14T03:18:14.711Z,6.97
2017-04-14T03:19:13.952Z,7.58
2017-04-14T03:20:13.145Z,8.53
2017-04-14T03:21:12.341Z,6.83
2017-04-14T03:22:11.533Z,7.63
2017-04-14T03:23:10.783Z,7.47
2017-04-14T03:24:10.038Z,9.77
2017-04-14T03:25:09.993Z,8.40
2017-04-14T03:26:09.216Z,9.90
2017-04-14T03:27:08.421Z,6.70
2017-04-14T03:28:08.362Z,9.23
2017-04-14T03:29:07.563Z,7.80
2017-04-14T03:30:07.065Z,11.08
2017-04-14T03:31:06.341Z,8.53
2017-04-14T03:32:05.596Z,8.98
2017-04-14T03:33:04.797Z,8.50
2017-04-14T03:34:04.029Z,7.13
2017-04-14T03:35:03.237Z,7.82
2017-04-14T03:36:02.472Z,10.87
2017-04-14T03:37:02.433Z,6.70
2017-04-14T03:38:01.633Z,10.82
2017-04-14T03:39:01.612Z,11.10
2017-04-14T03:40:00.816Z,12.88
2017-04-14T03:41:00.049Z,7.62
2017-04-14T03:41:59.280Z,11.05
2017-04-14T03:42:58.489Z,7.13
2017-04-14T03:43:58.436Z,8.27
2017-04-14T03:44:57.634Z,9.38
2017-04-14T03:45:56.913Z,8.20
2017-04-14T03:46:56.076Z,8.15
2017-04-14T03:47:55.520Z,12.65
2017-04-14T03:48:54.696Z,9.20
2017-04-14T03:49:53.889Z,11.45
2017-04-14T03:50:53.065Z,5.63
2017-04-14T03:51:52.233Z,6.65
2017-04-14T03:52:51.404Z,11.20
2017-04-14T03:53:50.624Z,9.38
2017-04-14T03:54:49.794Z,9.87
2017-04-14T03:55:48.982Z,10.48
2017-04-14T03:56:48.169Z,6.20
2017-04-14T03:57:47.347Z,10.28
2017-04-14T03:58:46.532Z,8.38
2017-04-14T03:59:45.754Z,7.10
2017-04-14T04:00:44.928Z,11.53
2017-04-14T04:01:44.096Z,7.80
2017-04-14T04:02:43.270Z,7.80
2017-04-14T04:03:43.189Z,8.05
2017-04-14T04:04:42.365Z,6.15
2017-04-14T04:05:42.535Z,6.80
2017-04-14T04:06:42.453Z,7.83
2017-04-14T04:07:41.637Z,5.63
2017-04-14T04:08:40.821Z,8.77
2017-04-14T04:09:40.020Z,9.27
2017-04-14T04:10:39.198Z,10.52
2017-04-14T04:11:38.407Z,11.48
2017-04-14T04:12:37.610Z,9.52
2017-04-14T04:13:36.780Z,6.73
2017-04-14T04:14:35.952Z,9.65
2017-04-14T04:15:35.865Z,12.67
2017-04-14T04:16:37.961Z,12.28
2017-04-14T04:17:37.149Z,11.30
2017-04-14T04:18:36.337Z,13.40
2017-04-14T04:19:35.520Z,16.02
2017-04-14T04:20:34.695Z,12.02
2017-04-14T04:21:33.897Z,12.70
2017-04-14T04:22:33.128Z,12.25
2017-04-14T04:23:32.404Z,18.23
2017-04-14T04:24:31.581Z,20.02
2017-04-14T04:25:30.761Z,9.47
2017-04-14T04:26:30.223Z,12.38
2017-04-14T04:27:29.436Z,13.47
2017-04-14T04:28:28.950Z,11.22
2017-04-14T04:29:28.145Z,14.68
2017-04-14T04:30:27.331Z,15.17
2017-04-14T04:31:30.724Z,13.97
2017-04-14T04:32:35.229Z,17.88
2017-04-14T04:33:40.496Z,11.08
2017-04-14T04:34:39.669Z,8.77
2017-04-14T04:35:38.845Z,8.73
2017-04-14T04:36:38.020Z,12.75
2017-04-14T04:37:37.189Z,8.13
2017-04-14T04:38:36.381Z,9.35
2017-04-14T04:39:35.595Z,10.28
2017-04-14T04:40:34.787Z,8.68
2017-04-14T04:41:33.994Z,8.02
2017-04-14T04:42:33.178Z,6.42
2017-04-14T04:43:32.361Z,7.85
2017-04-14T04:44:31.537Z,5.83
2017-04-14T04:45:30.761Z,11.13
2017-04-14T04:46:29.943Z,7.57
2017-04-14T04:47:29.129Z,8.17
2017-04-14T04:48:28.307Z,7.45
2017-04-14T04:49:27.485Z,13.30
2017-04-14T04:50:26.660Z,11.52
2017-04-14T04:51:25.877Z,14.05
2017-04-14T04:52:25.055Z,9.58
2017-04-14T04:53:24.981Z,12.58
2017-04-14T04:54:24.161Z,14.67
2017-04-14T04:55:23.571Z,13.57
2017-04-14T04:56:22.789Z,14.38
2017-04-14T04:57:22.296Z,14.45
2017-04-14T04:58:21.476Z,15.20
2017-04-14T04:59:20.672Z,17.90
2017-04-14T05:00:20.601Z,12.93
2017-04-14T05:01:19.790Z,15.92
2017-04-14T05:02:18.974Z,15.85
2017-04-14T05:03:18.172Z,11.80
2017-04-14T05:04:18.091Z,9.07
2017-04-14T05:05:17.276Z,10.73
2017-04-14T05:06:17.197Z,10.30
2017-04-14T05:07:16.374Z,9.63
2017-04-14T05:08:15.564Z,10.80
2017-04-14T05:09:15.005Z,6.02
2017-04-14T05:10:14.177Z,7.02
2017-04-14T05:11:13.405Z,10.15
2017-04-14T05:12:12.588Z,10.38
2017-04-14T05:13:11.777Z,8.42
2017-04-14T05:14:10.949Z,7.40
2017-04-14T05:15:10.144Z,8.22
2017-04-14T05:16:09.338Z,9.93
2017-04-14T05:17:08.524Z,10.63
2017-04-14T05:18:07.702Z,12.13
2017-04-14T05:19:06.894Z,11.23
2017-04-14T05:20:06.096Z,12.95
2017-04-14T05:21:05.325Z,12.90
2017-04-14T05:22:04.573Z,10.30
2017-04-14T05:23:03.784Z,10.85
2017-04-14T05:24:02.972Z,12.80
2017-04-14T05:25:02.201Z,10.67
2017-04-14T05:26:01.377Z,9.23
2017-04-14T05:27:00.589Z,13.42
2017-04-14T05:27:59.765Z,13.45
2017-04-14T05:28:58.943Z,15.80
2017-04-14T05:29:58.121Z,14.25
2017-04-14T05:30:57.348Z,7.62
2017-04-14T05:31:57.276Z,8.47
2017-04-14T05:32:56.480Z,8.75
2017-04-14T05:33:55.654Z,6.25
2017-04-14T05:34:54.824Z,8.00
2017-04-14T05:35:54.741Z,7.60
2017-04-14T05:36:53.908Z,6.20
2017-04-14T05:37:53.832Z,6.30
2017-04-14T05:38:53.025Z,5.75
2017-04-14T05:39:52.207Z,7.00
2017-04-14T05:40:51.384Z,8.98
2017-04-14T05:41:51.289Z,8.33
2017-04-14T05:42:51.225Z,15.22
2017-04-14T05:43:50.397Z,10.80
2017-04-14T05:44:49.625Z,12.63
2017-04-14T05:45:48.804Z,12.82
2017-04-14T05:46:47.981Z,14.10
2017-04-14T05:47:47.156Z,15.52
2017-04-14T05:48:46.337Z,15.17
2017-04-14T05:49:45.552Z,10.85
2017-04-14T05:50:45.052Z,15.13
2017-04-14T05:51:44.230Z,10.17
2017-04-14T05:52:43.399Z,9.03
2017-04-14T05:53:42.602Z,14.28
2017-04-14T05:54:41.765Z,9.90
2017-04-14T05:55:40.978Z,9.85
2017-04-14T05:56:40.182Z,8.60
2017-04-14T05:57:39.357Z,9.88
2017-04-14T05:58:38.541Z,7.27
2017-04-14T05:59:37.709Z,9.97
2017-04-14T06:00:36.917Z,13.33
2017-04-14T06:01:36.097Z,11.07
2017-04-14T06:02:35.301Z,9.80
2017-04-14T06:03:34.469Z,10.55
2017-04-14T06:04:33.736Z,16.52
2017-04-14T06:05:32.908Z,15.82
2017-04-14T06:06:32.080Z,16.58
2017-04-14T06:07:31.284Z,14.48
2017-04-14T06:08:30.484Z,19.35
2017-04-14T06:09:29.669Z,22.82
2017-04-14T06:10:28.853Z,20.25
2017-04-14T06:11:28.040Z,19.03
2017-04-14T06:12:27.221Z,17.73
2017-04-14T06:13:26.440Z,17.72
2017-04-14T06:14:25.648Z,16.97
2017-04-14T06:15:24.832Z,18.57
2017-04-14T06:16:24.017Z,18.62
2017-04-14T06:17:23.204Z,16.38
2017-04-14T06:18:22.421Z,18.43
2017-04-14T06:19:21.611Z,13.02
2017-04-14T06:20:20.829Z,15.35
2017-04-14T06:21:20.020Z,18.45
2017-04-14T06:22:19.210Z,17.07
2017-04-14T06:23:18.397Z,17.27
2017-04-14T06:24:17.588Z,18.83
2017-04-14T06:25:16.773Z,28.80
2017-04-14T06:26:16.309Z,22.57
2017-04-14T06:27:15.497Z,18.95
2017-04-14T06:28:14.680Z,18.03
2017-04-14T06:29:13.865Z,16.77
2017-04-14T06:30:13.110Z,20.13
2017-04-14T06:31:12.299Z,17.08
2017-04-14T06:32:11.529Z,18.23
2017-04-14T06:33:10.709Z,19.65
2017-04-14T06:34:09.899Z,15.38
2017-04-14T06:35:09.077Z,17.53
2017-04-14T06:36:08.253Z,19.87
2017-04-14T06:37:08.182Z,18.95
2017-04-14T06:38:07.722Z,14.35
2017-04-14T06:39:07.659Z,20.07
2017-04-14T06:40:07.597Z,19.65
2017-04-14T06:41:06.785Z,20.45
2017-04-14T06:42:05.977Z,17.63
2017-04-14T06:43:05.172Z,20.37
2017-04-14T06:44:05.124Z,18.87
2017-04-14T06:45:04.329Z,18.93
2017-04-14T06:46:03.508Z,22.37
2017-04-14T06:47:02.700Z,27.43
2017-04-14T06:48:01.885Z,19.55
2017-04-14T06:49:01.084Z,15.47
2017-04-14T06:50:00.305Z,14.78
2017-04-14T06:50:59.897Z,19.38
2017-04-14T06:51:59.108Z,22.28
2017-04-14T06:52:58.339Z,24.55
2017-04-14T06:53:57.560Z,16.60
2017-04-14T06:54:56.746Z,20.20
2017-04-14T06:55:55.973Z,22.05
2017-04-14T06:56:55.152Z,17.90
2017-04-14T06:57:54.332Z,19.83
2017-04-14T06:58:53.534Z,21.87
2017-04-14T06:59:52.717Z,24.65
2017-04-14T07:00:51.910Z,22.30
2017-04-14T07:01:51.125Z,19.20
2017-04-14T07:02:54.524Z,29.12
2017-04-14T07:03:54.325Z,24.30
2017-04-14T07:04:53.829Z,19.53
2017-04-14T07:05:53.045Z,24.07
2017-04-14T07:06:52.266Z,21.03
2017-04-14T07:07:51.452Z,19.23
2017-04-14T07:08:50.692Z,20.70
2017-04-14T07:09:49.878Z,25.23
2017-04-14T07:10:49.064Z,22.98
2017-04-14T07:11:48.256Z,21.72
2017-04-14T07:12:47.466Z,21.02
2017-04-14T07:13:46.673Z,27.22
2017-04-14T07:14:45.860Z,22.77
2017-04-14T07:15:45.064Z,20.72
2017-04-14T07:16:44.288Z,24.08
2017-04-14T07:17:43.516Z,18.67
2017-04-14T07:18:43.475Z,23.02
2017-04-14T07:19:42.677Z,25.00
2017-04-14T07:20:41.865Z,22.58
2017-04-14T07:21:41.059Z,22.50
2017-04-14T07:22:40.240Z,25.82
2017-04-14T07:23:39.421Z,23.92
2017-04-14T07:24:38.918Z,26.83
2017-04-14T07:25:38.109Z,27.50
2017-04-14T07:26:37.297Z,24.08
2017-04-14T07:27:36.491Z,26.27
2017-04-14T07:28:35.705Z,26.08
2017-04-14T07:29:35.635Z,26.03
2017-04-14T07:30:34.858Z,19.90
2017-04-14T07:31:34.061Z,29.80
2017-04-14T07:32:33.265Z,27.42
2017-04-14T07:33:33.198Z,23.18
2017-04-14T07:34:32.379Z,26.77
2017-04-14T07:35:31.569Z,29.22
2017-04-14T07:36:30.801Z,27.13
2017-04-14T07:37:29.979Z,28.93
2017-04-14T07:38:29.176Z,24.67
2017-04-14T07:39:28.360Z,23.20
2017-04-14T07:40:27.554Z,28.15
2017-04-14T07:41:26.742Z,32.18
2017-04-14T07:42:26.177Z,29.57
2017-04-14T07:43:25.373Z,28.20
2017-04-14T07:44:25.305Z,24.27
2017-04-14T07:45:24.556Z,29.35
2017-04-14T07:46:23.732Z,30.53
2017-04-14T07:47:22.925Z,30.73
2017-04-14T07:48:22.146Z,28.40
2017-04-14T07:49:21.328Z,30.37
2017-04-14T07:50:20.505Z,28.97
2017-04-14T07:51:19.712Z,30.95
2017-04-14T07:52:18.898Z,30.13
2017-04-14T07:53:18.078Z,30.18
2017-04-14T07:54:17.332Z,34.15
2017-04-14T07:55:16.566Z,28.83
2017-04-14T07:56:15.754Z,32.45
2017-04-14T07:57:14.932Z,28.87
2017-04-14T07:58:14.120Z,30.52
2017-04-14T07:59:13.316Z,30.18
2017-04-14T08:00:12.594Z,25.35
2017-04-14T08:01:11.828Z,31.92
2017-04-14T08:02:11.013Z,26.32
2017-04-14T08:03:10.205Z,28.25
2017-04-14T08:04:09.384Z,26.53
2017-04-14T08:05:08.584Z,28.30
2017-04-14T08:06:07.792Z,32.75
2017-04-14T08:07:06.981Z,29.03
2017-04-14T08:08:06.170Z,25.92
2017-04-14T08:09:05.868Z,27.00
2017-04-14T08:10:05.072Z,23.10
2017-04-14T08:11:05.041Z,27.50
2017-04-14T08:12:04.297Z,24.03
2017-04-14T08:13:03.557Z,26.87
2017-04-14T08:14:02.769Z,23.62
2017-04-14T08:15:01.976Z,30.73
2017-04-14T08:16:01.172Z,23.23
2017-04-14T08:17:00.388Z,23.03
2017-04-14T08:17:59.594Z,28.35
2017-04-14T08:18:58.777Z,23.90
2017-04-14T08:19:57.979Z,28.97
2017-04-14T08:20:57.170Z,25.23
2017-04-14T08:21:56.359Z,26.33
2017-04-14T08:22:55.545Z,23.40
2017-04-14T08:23:54.778Z,20.25
2017-04-14T08:24:53.980Z,20.73
2017-04-14T08:25:53.172Z,22.32
2017-04-14T08:26:52.370Z,24.03
2017-04-14T08:27:52.294Z,21.63
2017-04-14T08:28:52.574Z,24.92
2017-04-14T08:29:53.259Z,24.52
2017-04-14T08:30:52.491Z,24.02
2017-04-14T08:31:51.668Z,22.08
2017-04-14T08:32:50.853Z,20.83
2017-04-14T08:33:50.047Z,19.93
2017-04-14T08:34:49.236Z,22.88
2017-04-14T08:35:48.516Z,19.47
2017-04-14T08:36:47.713Z,15.68
2017-04-14T08:37:46.933Z,19.80
2017-04-14T08:38:46.129Z,19.77
2017-04-14T08:39:45.332Z,23.42
2017-04-14T08:40:45.268Z,21.95
2017-04-14T08:41:44.484Z,13.90
2017-04-14T08:42:43.680Z,16.02
2017-04-14T08:43:42.882Z,20.65
2017-04-14T08:44:42.064Z,18.12
2017-04-14T08:45:41.253Z,15.85
2017-04-14T08:46:40.437Z,16.38
2017-04-14T08:47:39.652Z,14.63
2017-04-14T08:48:38.834Z,16.53
2017-04-14T08:49:38.021Z,13.78
2017-04-14T08:50:37.678Z,15.50
2017-04-14T08:51:36.852Z,12.75
2017-04-14T08:52:36.036Z,15.80
2017-04-14T08:53:35.251Z,22.63
2017-04-14T08:54:34.441Z,19.27
2017-04-14T08:55:33.643Z,19.57
2017-04-14T08:56:32.837Z,12.37
2017-04-14T08:57:32.025Z,11.58
2017-04-14T08:58:31.217Z,16.25
2017-04-14T08:59:30.446Z,11.92
2017-04-14T09:00:29.640Z,12.40
2017-04-14T09:01:28.849Z,17.57
2017-04-14T09:02:28.032Z,17.82
2017-04-14T09:03:27.224Z,15.88
2017-04-14T09:04:26.449Z,12.45
2017-04-14T09:05:25.670Z,15.50
2017-04-14T09:06:24.988Z,14.27
2017-04-14T09:07:24.179Z,17.65
2017-04-14T09:08:23.368Z,15.08
2017-04-14T09:09:22.552Z,13.87
2017-04-14T09:10:21.749Z,11.27
2017-04-14T09:11:20.941Z,11.32
2017-04-14T09:12:20.129Z,14.20
2017-04-14T09:13:19.313Z,10.72
2017-04-14T09:14:18.510Z,14.32
2017-04-14T09:15:18.471Z,9.07
2017-04-14T09:16:17.657Z,12.70
2017-04-14T09:17:16.832Z,9.88
2017-04-14T09:18:16.009Z,11.93
2017-04-14T09:19:15.193Z,10.43
2017-04-14T09:20:14.378Z,8.78
2017-04-14T09:21:13.566Z,13.53
2017-04-14T09:22:12.736Z,9.93
2017-04-14T09:23:12.663Z,13.05
2017-04-14T09:24:11.852Z,11.78
2017-04-14T09:25:11.061Z,24.78
2017-04-14T09:26:10.298Z,16.57
2017-04-14T09:27:09.488Z,11.27
2017-04-14T09:28:08.672Z,12.40
2017-04-14T09:29:07.853Z,12.77
2017-04-14T09:30:07.088Z,12.23
2017-04-14T09:31:06.288Z,12.92
2017-04-14T09:32:05.529Z,13.00
2017-04-14T09:33:05.485Z,15.38
2017-04-14T09:34:04.676Z,12.63
2017-04-14T09:35:03.866Z,12.28
2017-04-14T09:36:03.045Z,11.53
2017-04-14T09:37:02.224Z,9.80
2017-04-14T09:38:01.449Z,14.27
2017-04-14T09:39:00.892Z,17.62
2017-04-14T09:40:00.077Z,13.12
2017-04-14T09:40:59.312Z,11.27
2017-04-14T09:41:59.233Z,15.07
2017-04-14T09:42:58.421Z,18.50
2017-04-14T09:43:57.662Z,21.82
2017-04-14T09:44:56.841Z,27.20
2017-04-14T09:45:56.044Z,11.38
2017-04-14T09:46:55.244Z,11.40
2017-04-14T09:47:54.440Z,20.60
2017-04-14T09:48:53.755Z,13.25
2017-04-14T09:49:53.064Z,12.78
2017-04-14T09:50:53.092Z,18.27
2017-04-14T09:51:52.385Z,12.43
2017-04-14T09:52:51.568Z,15.23
2017-04-14T09:53:50.748Z,11.75
2017-04-14T09:54:49.942Z,12.00
2017-04-14T09:55:49.124Z,14.48
2017-04-14T09:56:48.316Z,14.95
2017-04-14T09:57:47.518Z,10.10
2017-04-14T09:58:46.717Z,14.02
2017-04-14T09:59:45.900Z,12.57
2017-04-14T10:00:45.084Z,18.10
2017-04-14T10:01:44.272Z,14.48
2017-04-14T10:02:43.491Z,15.78
2017-04-14T10:03:43.153Z,15.88
2017-04-14T10:04:42.354Z,21.33
2017-04-14T10:05:41.544Z,15.65
2017-04-14T10:06:40.739Z,11.20
2017-04-14T10:07:39.924Z,13.78
2017-04-14T10:08:39.102Z,12.80
2017-04-14T10:09:38.332Z,13.90
2017-04-14T10:10:37.516Z,11.77
2017-04-14T10:11:36.708Z,13.12
2017-04-14T10:12:35.897Z,10.78
2017-04-14T10:13:35.077Z,11.25
2017-04-14T10:14:34.266Z,10.42
2017-04-14T10:15:33.447Z,12.17
2017-04-14T10:16:32.674Z,16.78
2017-04-14T10:17:32.901Z,12.13
2017-04-14T10:18:32.156Z,13.82
2017-04-14T10:19:32.093Z,12.25
2017-04-14T10:20:31.281Z,9.45
2017-04-14T10:21:30.493Z,11.52
2017-04-14T10:22:29.685Z,12.22
2017-04-14T10:23:28.861Z,12.03
2017-04-14T10:24:28.078Z,10.93
2017-04-14T10:25:27.272Z,10.68
2017-04-14T10:26:26.457Z,12.30
2017-04-14T10:27:25.632Z,10.87
2017-04-14T10:28:24.821Z,13.68
2017-04-14T10:29:24.009Z,13.35
2017-04-14T10:30:23.236Z,15.40
2017-04-14T10:31:22.413Z,10.72
2017-04-14T10:32:21.647Z,9.02
2017-04-14T10:33:21.079Z,12.07
2017-04-14T10:34:20.277Z,10.40
2017-04-14T10:35:19.797Z,11.85
2017-04-14T10:36:19.022Z,11.87
2017-04-14T10:37:18.214Z,7.90
2017-04-14T10:38:18.151Z,9.35
2017-04-14T10:39:17.349Z,10.83
2017-04-14T10:40:16.528Z,10.42
2017-04-14T10:41:15.717Z,12.53
2017-04-14T10:42:14.980Z,10.85
2017-04-14T10:43:14.167Z,10.17
2017-04-14T10:44:13.332Z,9.18
2017-04-14T10:45:12.525Z,15.97
2017-04-14T10:46:12.461Z,11.05
2017-04-14T10:47:11.637Z,9.27
2017-04-14T10:48:11.219Z,10.05
2017-04-14T10:49:10.432Z,9.00
2017-04-14T10:50:09.608Z,17.85
2017-04-14T10:51:08.791Z,13.27
2017-04-14T10:52:07.993Z,9.80
2017-04-14T10:53:07.189Z,15.03
2017-04-14T10:54:06.406Z,9.70
2017-04-14T10:55:05.598Z,7.05
2017-04-14T10:56:04.796Z,9.30
2017-04-14T10:57:03.992Z,8.60
2017-04-14T10:58:03.916Z,10.05
2017-04-14T10:59:03.101Z,11.10
2017-04-14T11:00:02.300Z,13.22
2017-04-14T11:01:01.541Z,10.62
2017-04-14T11:02:00.738Z,10.73
2017-04-14T11:02:59.934Z,9.60
2017-04-14T11:03:59.868Z,8.95
2017-04-14T11:04:59.078Z,10.57
2017-04-14T11:05:58.305Z,10.02
2017-04-14T11:06:57.485Z,8.23
2017-04-14T11:07:56.681Z,7.98
2017-04-14T11:08:55.857Z,9.42
2017-04-14T11:09:55.785Z,10.23
2017-04-14T11:10:54.966Z,11.80
2017-04-14T11:11:54.207Z,12.32
2017-04-14T11:12:53.404Z,9.42
2017-04-14T11:13:52.588Z,7.35
2017-04-14T11:14:51.789Z,8.80
2017-04-14T11:15:50.973Z,10.02
2017-04-14T11:16:50.145Z,10.52
2017-04-14T11:17:49.358Z,12.98
2017-04-14T11:18:48.541Z,14.43
2017-04-14T11:19:47.763Z,10.62
2017-04-14T11:20:46.948Z,14.85
2017-04-14T11:21:46.128Z,9.92
2017-04-14T11:22:46.057Z,9.75
2017-04-14T11:23:45.325Z,11.25
2017-04-14T11:24:44.500Z,11.23
2017-04-14T11:25:44.427Z,9.98
2017-04-14T11:26:43.618Z,8.08
2017-04-14T11:27:42.800Z,8.58
2017-04-14T11:28:41.990Z,12.03
2017-04-14T11:29:41.200Z,8.98
2017-04-14T11:30:40.388Z,13.80
2017-04-14T11:31:39.565Z,12.25
2017-04-14T11:32:38.752Z,10.37
2017-04-14T11:33:37.921Z,8.55
2017-04-14T11:34:37.112Z,10.23
2017-04-14T11:35:36.336Z,11.80
2017-04-14T11:36:35.525Z,9.12
2017-04-14T11:37:34.696Z,8.65
2017-04-14T11:38:34.393Z,8.90
2017-04-14T11:39:33.577Z,10.77
2017-04-14T11:40:32.759Z,9.98
2017-04-14T11:41:31.983Z,11.17
2017-04-14T11:42:31.168Z,10.12
2017-04-14T11:43:30.399Z,16.97
2017-04-14T11:44:29.590Z,8.33
2017-04-14T11:45:28.776Z,8.83
2017-04-14T11:46:28.696Z,7.83
2017-04-14T11:47:27.908Z,9.75
2017-04-14T11:48:27.094Z,9.52
2017-04-14T11:49:26.277Z,9.23
2017-04-14T11:50:25.456Z,10.13
2017-04-14T11:51:24.641Z,7.47
2017-04-14T11:52:23.821Z,7.07
2017-04-14T11:53:23.026Z,6.95
2017-04-14T11:54:22.261Z,10.38
2017-04-14T11:55:21.463Z,8.88
2017-04-14T11:56:20.719Z,11.95
2017-04-14T11:57:19.969Z,10.18
2017-04-14T11:58:19.181Z,8.73
2017-04-14T11:59:18.398Z,7.05
2017-04-14T12:00:17.653Z,5.82
2017-04-14T12:01:16.864Z,8.07
2017-04-14T12:02:16.048Z,8.58
2017-04-14T12:03:15.308Z,9.67
2017-04-14T12:04:14.484Z,9.67
2017-04-14T12:05:13.930Z,7.42
2017-04-14T12:06:13.114Z,8.52
2017-04-14T12:07:12.306Z,7.48
2017-04-14T12:08:11.535Z,7.38
2017-04-14T12:09:11.045Z,5.70
2017-04-14T12:10:10.268Z,7.20
2017-04-14T12:11:09.507Z,12.33
2017-04-14T12:12:09.441Z,7.98
2017-04-14T12:13:08.613Z,6.88
2017-04-14T12:14:07.812Z,11.27
2017-04-14T12:15:07.030Z,9.55
2017-04-14T12:16:06.240Z,7.28
2017-04-14T12:17:05.445Z,8.42
2017-04-14T12:18:04.623Z,11.30
2017-04-14T12:19:04.126Z,12.75
2017-04-14T12:20:03.340Z,9.47
2017-04-14T12:21:02.529Z,11.50
2017-04-14T12:22:01.728Z,10.52
2017-04-14T12:23:00.971Z,8.28
2017-04-14T12:24:00.265Z,10.05
2017-04-14T12:24:59.456Z,6.38
2017-04-14T12:25:58.643Z,7.00
2017-04-14T12:26:57.820Z,6.38
2017-04-14T12:27:56.996Z,6.82
2017-04-14T12:28:56.285Z,10.77
2017-04-14T12:29:55.473Z,9.78
2017-04-14T12:30:54.700Z,13.50
2017-04-14T12:31:53.893Z,11.45
2017-04-14T12:32:53.075Z,8.28
2017-04-14T12:33:52.256Z,9.38
2017-04-14T12:34:51.480Z,9.40
2017-04-14T12:35:50.660Z,9.45
2017-04-14T12:36:49.837Z,7.45
2017-04-14T12:37:49.299Z,8.18
2017-04-14T12:38:48.487Z,13.80
2017-04-14T12:39:47.918Z,15.47
2017-04-14T12:40:47.172Z,17.30
2017-04-14T12:41:46.358Z,14.78
2017-04-14T12:42:45.540Z,23.62
2017-04-14T12:43:44.729Z,12.73
2017-04-14T12:44:43.934Z,12.43
2017-04-14T12:45:43.113Z,6.93
2017-04-14T12:46:42.336Z,8.77
2017-04-14T12:47:41.512Z,8.37
2017-04-14T12:48:40.702Z,10.10
2017-04-14T12:49:39.901Z,8.02
2017-04-14T12:50:39.089Z,6.82
2017-04-14T12:51:38.277Z,5.65
2017-04-14T12:52:37.485Z,7.43